createdAt,value
2022-11-08T00:00:56.969Z,100752.63
2022-11-08T00:03:24.000Z,100752.38
2022-11-08T00:06:10.125Z,100755.00
2022-11-08T00:08:55.605Z,100751.78
2022-11-08T00:11:41.538Z,100750.25
2022-11-08T00:14:11.600Z,100751.19
2022-11-08T00:16:38.541Z,100750.81
2022-11-08T00:19:05.500Z,100756.88
2022-11-08T00:21:39.278Z,100755.09
2022-11-08T00:24:10.263Z,100753.53
2022-11-08T00:26:50.992Z,100761.16
2022-11-08T00:29:21.793Z,100757.38
2022-11-08T00:31:54.099Z,100761.28
2022-11-08T00:34:21.152Z,100770.91
2022-11-08T00:36:48.187Z,100764.00
2022-11-08T00:39:15.170Z,100765.66
2022-11-08T00:41:45.540Z,100762.81
2022-11-08T00:44:12.829Z,100768.66
2022-11-08T00:46:41.478Z,100769.69
2022-11-08T00:49:09.372Z,100769.69
2022-11-08T00:51:37.454Z,100768.03
2022-11-08T00:54:09.985Z,100760.41
2022-11-08T00:56:40.055Z,100765.00
2022-11-08T00:59:07.059Z,100766.06
2022-11-08T01:01:34.241Z,100771.59
2022-11-08T01:04:01.429Z,100771.81
2022-11-08T01:06:28.411Z,100767.06
2022-11-08T01:08:56.023Z,100770.63
2022-11-08T01:11:26.223Z,100774.44
2022-11-08T01:14:02.381Z,100774.56
2022-11-08T01:16:33.173Z,100760.66
2022-11-08T01:19:04.461Z,100768.28
2022-11-08T01:21:31.997Z,100759.97
2022-11-08T01:23:59.825Z,100759.16
2022-11-08T01:26:35.796Z,100751.63
2022-11-08T01:29:02.822Z,100754.03
2022-11-08T01:31:44.282Z,100756.88
2022-11-08T01:34:11.384Z,100746.88
2022-11-08T01:36:44.903Z,100751.50
2022-11-08T01:39:15.256Z,100748.38
2022-11-08T01:41:46.385Z,100748.28
2022-11-08T01:44:20.732Z,100749.22
2022-11-08T01:46:50.513Z,100749.22
2022-11-08T01:49:44.817Z,100749.47
2022-11-08T01:52:46.718Z,100749.31
2022-11-08T01:55:36.838Z,100752.56
2022-11-08T01:58:22.088Z,100749.72
2022-11-08T02:00:49.639Z,100752.31
2022-11-08T02:03:20.243Z,100753.88
2022-11-08T02:05:48.018Z,100754.84
2022-11-08T02:08:41.946Z,100751.13
2022-11-08T02:11:14.985Z,100752.25
2022-11-08T02:13:42.376Z,100748.75
2022-11-08T02:16:16.504Z,100746.63
2022-11-08T02:18:46.288Z,100751.50
2022-11-08T02:21:31.800Z,100745.94
2022-11-08T02:24:09.519Z,100739.63
2022-11-08T02:26:37.769Z,100745.00
2022-11-08T02:29:30.179Z,100733.75
2022-11-08T02:32:00.680Z,100734.50
2022-11-08T02:34:44.145Z,100727.63
2022-11-08T02:37:14.244Z,100737.28
2022-11-08T02:39:41.368Z,100735.94
2022-11-08T02:42:14.052Z,100742.00
2022-11-08T02:44:41.006Z,100746.91
2022-11-08T02:47:08.161Z,100744.28
2022-11-08T02:49:35.104Z,100744.13
2022-11-08T02:52:02.133Z,100738.44
2022-11-08T02:54:29.176Z,100747.25
2022-11-08T02:56:56.101Z,100737.00
2022-11-08T02:59:23.153Z,100740.84
2022-11-08T03:01:50.279Z,100743.34
2022-11-08T03:04:17.484Z,100740.22
2022-11-08T03:06:44.507Z,100745.78
2022-11-08T03:09:11.633Z,100739.25
2022-11-08T03:11:38.632Z,100737.72
2022-11-08T03:14:05.758Z,100737.47
2022-11-08T03:16:33.396Z,100743.66
2022-11-08T03:19:00.467Z,100742.09
2022-11-08T03:21:27.448Z,100746.34
2022-11-08T03:23:54.418Z,100744.56
2022-11-08T03:26:21.389Z,100753.47
2022-11-08T03:28:48.434Z,100752.31
2022-11-08T03:31:18.657Z,100751.59
2022-11-08T03:33:45.568Z,100746.72
2022-11-08T03:36:12.775Z,100738.28
2022-11-08T03:38:39.736Z,100736.38
2022-11-08T03:41:07.014Z,100726.06
2022-11-08T03:43:34.296Z,100733.09
2022-11-08T03:46:01.264Z,100730.25
2022-11-08T03:48:28.204Z,100736.16
2022-11-08T03:50:55.160Z,100743.91
2022-11-08T03:53:22.108Z,100725.97
2022-11-08T03:55:49.199Z,100734.66
2022-11-08T03:58:16.494Z,100726.75
2022-11-08T04:00:43.791Z,100732.34
2022-11-08T04:03:10.735Z,100732.56
2022-11-08T04:05:37.687Z,100729.47
2022-11-08T04:08:05.961Z,100741.44
2022-11-08T04:10:33.525Z,100731.50
2022-11-08T04:13:19.682Z,100736.31
2022-11-08T04:15:51.280Z,100736.75
2022-11-08T04:18:37.023Z,100730.75
2022-11-08T04:21:19.183Z,100736.78
2022-11-08T04:23:52.236Z,100740.75
2022-11-08T04:26:21.722Z,100742.44
2022-11-08T04:28:48.794Z,100750.78
2022-11-08T04:31:20.315Z,100745.19
2022-11-08T04:33:47.514Z,100744.78
2022-11-08T04:36:17.625Z,100742.03
2022-11-08T04:38:49.538Z,100749.47
2022-11-08T04:41:21.934Z,100740.53
2022-11-08T04:43:52.215Z,100733.53
2022-11-08T04:46:28.347Z,100737.94
2022-11-08T04:48:59.325Z,100732.13
2022-11-08T04:51:34.040Z,100741.59
2022-11-08T04:54:03.067Z,100738.47
2022-11-08T04:56:31.126Z,100736.31
2022-11-08T04:59:00.510Z,100733.34
2022-11-08T05:01:31.874Z,100735.38
2022-11-08T05:03:59.370Z,100738.69
2022-11-08T05:06:31.895Z,100743.59
2022-11-08T05:09:00.068Z,100745.59
2022-11-08T05:11:29.957Z,100747.78
2022-11-08T05:13:57.710Z,100744.38
2022-11-08T05:16:30.400Z,100745.84
2022-11-08T05:18:57.922Z,100743.84
2022-11-08T05:21:44.397Z,100743.44
2022-11-08T05:24:15.987Z,100744.91
2022-11-08T05:26:47.198Z,100737.59
2022-11-08T05:29:16.137Z,100744.56
2022-11-08T05:31:43.087Z,100745.19
2022-11-08T05:34:10.105Z,100743.84
2022-11-08T05:36:37.139Z,100732.78
2022-11-08T05:39:04.388Z,100738.31
2022-11-08T05:41:34.763Z,100744.66
2022-11-08T05:44:05.455Z,100738.84
2022-11-08T05:46:32.858Z,100731.44
2022-11-08T05:48:59.974Z,100741.31
2022-11-08T05:51:27.023Z,100738.00
2022-11-08T05:53:53.925Z,100743.44
2022-11-08T05:56:20.825Z,100739.06
2022-11-08T05:58:50.236Z,100736.94
2022-11-08T06:01:20.180Z,100740.38
2022-11-08T06:03:50.640Z,100742.16
2022-11-08T06:06:21.377Z,100738.31
2022-11-08T06:11:41.140Z,100732.44
2022-11-08T06:14:13.570Z,100740.28
2022-11-08T06:16:40.544Z,100753.84
2022-11-08T06:19:10.422Z,100750.09
2022-11-08T06:21:37.398Z,100757.19
2022-11-08T06:24:05.413Z,100758.25
2022-11-08T06:26:32.354Z,100766.47
2022-11-08T06:29:00.594Z,100763.44
2022-11-08T06:31:27.664Z,100766.69
2022-11-08T06:33:54.621Z,100764.47
2022-11-08T06:36:21.866Z,100760.50
2022-11-08T06:38:54.518Z,100762.81
2022-11-08T06:41:22.590Z,100753.81
2022-11-08T06:43:49.591Z,100761.97
2022-11-08T06:46:16.987Z,100765.00
2022-11-08T06:48:44.307Z,100765.94
2022-11-08T06:51:11.490Z,100764.38
2022-11-08T06:53:38.607Z,100774.50
2022-11-08T06:56:05.726Z,100770.50
2022-11-08T07:03:02.328Z,100772.38
2022-11-08T07:05:33.102Z,100768.81
2022-11-08T07:08:01.146Z,100769.44
2022-11-08T07:10:31.543Z,100768.34
2022-11-08T07:13:05.896Z,100761.03
2022-11-08T07:15:35.941Z,100763.25
2022-11-08T07:18:13.902Z,100766.16
2022-11-08T07:20:42.251Z,100763.97
2022-11-08T07:23:14.217Z,100761.59
2022-11-08T07:25:41.974Z,100770.53
2022-11-08T07:28:17.272Z,100762.81
2022-11-08T07:30:46.653Z,100762.19
2022-11-08T07:33:15.717Z,100760.75
2022-11-08T07:35:47.277Z,100760.66
2022-11-08T07:38:14.603Z,100762.19
2022-11-08T07:40:42.198Z,100758.72
2022-11-08T07:43:12.109Z,100763.59
2022-11-08T07:45:42.937Z,100770.72
2022-11-08T07:48:13.725Z,100767.03
2022-11-08T07:50:42.679Z,100773.00
2022-11-08T07:53:10.347Z,100775.31
2022-11-08T07:55:39.434Z,100765.66
2022-11-08T07:58:07.871Z,100760.88
2022-11-08T08:00:38.099Z,100775.59
2022-11-08T08:03:08.734Z,100773.03
2022-11-08T08:05:43.614Z,100766.91
2022-11-08T08:08:13.255Z,100761.47
2022-11-08T08:10:44.370Z,100759.56
2022-11-08T08:13:11.512Z,100756.75
2022-11-08T08:15:38.846Z,100749.63
2022-11-08T08:18:08.571Z,100752.47
2022-11-08T08:20:37.859Z,100740.34
2022-11-08T08:23:06.677Z,100747.84
2022-11-08T08:25:36.985Z,100737.59
2022-11-08T08:28:05.737Z,100740.00
2022-11-08T08:30:34.307Z,100729.75
2022-11-08T08:33:28.007Z,100728.22
2022-11-08T08:35:56.504Z,100732.53
2022-11-08T08:38:23.569Z,100727.84
2022-11-08T08:40:51.240Z,100724.63
2022-11-08T08:43:19.434Z,100727.03
2022-11-08T08:45:46.768Z,100728.81
2022-11-08T08:48:13.789Z,100727.13
2022-11-08T08:50:41.056Z,100723.16
2022-11-08T08:53:08.209Z,100719.72
2022-11-08T08:55:35.449Z,100723.72
2022-11-08T08:58:02.513Z,100719.63
2022-11-08T09:03:16.825Z,100721.06
2022-11-08T09:05:46.519Z,100726.56
2022-11-08T09:08:15.129Z,100721.84
2022-11-08T09:10:42.324Z,100724.75
2022-11-08T09:13:09.598Z,100720.22
2022-11-08T09:15:36.583Z,100720.56
2022-11-08T09:18:03.719Z,100727.00
2022-11-08T09:20:30.683Z,100719.44
2022-11-08T09:23:04.183Z,100725.41
2022-11-08T09:25:31.754Z,100724.34
2022-11-08T09:27:58.695Z,100723.75
2022-11-08T09:30:26.611Z,100723.19
2022-11-08T09:33:02.566Z,100719.56
2022-11-08T09:35:30.681Z,100720.88
2022-11-08T09:37:58.844Z,100715.94
2022-11-08T09:40:57.079Z,100719.84
2022-11-08T09:43:43.776Z,100710.63
2022-11-08T09:46:18.144Z,100716.41
2022-11-08T09:48:46.289Z,100712.97
2022-11-08T09:51:18.355Z,100713.56
2022-11-08T09:53:58.504Z,100709.97
2022-11-08T09:56:36.622Z,100709.19
2022-11-08T09:59:29.375Z,100701.97
2022-11-08T10:02:15.907Z,100714.97
2022-11-08T10:04:57.491Z,100707.50
2022-11-08T10:07:52.257Z,100696.72
2022-11-08T10:10:48.755Z,100696.56
2022-11-08T10:13:31.002Z,100698.91
2022-11-08T10:16:39.335Z,100690.19
2022-11-08T10:19:55.171Z,100687.00
2022-11-08T10:22:59.926Z,100690.31
2022-11-08T10:26:02.008Z,100681.22
2022-11-08T10:28:40.387Z,100681.47
2022-11-08T10:31:10.521Z,100675.66
2022-11-08T10:33:54.705Z,100669.59
2022-11-08T10:36:57.965Z,100672.16
2022-11-08T10:39:28.443Z,100675.75
2022-11-08T10:42:46.959Z,100665.56
2022-11-08T10:45:19.844Z,100673.91
2022-11-08T10:47:47.268Z,100667.78
2022-11-08T10:50:44.138Z,100664.53
2022-11-08T10:53:43.189Z,100663.66
2022-11-08T10:56:10.207Z,100661.06
2022-11-08T10:58:42.959Z,100665.69
2022-11-08T11:01:22.064Z,100654.38
2022-11-08T11:03:52.351Z,100657.00
2022-11-08T11:06:37.101Z,100657.56
2022-11-08T11:09:21.256Z,100652.81
2022-11-08T11:12:06.742Z,100646.13
2022-11-08T11:14:34.385Z,100642.66
2022-11-08T11:17:18.043Z,100640.19
2022-11-08T11:19:56.061Z,100640.94
2022-11-08T11:22:41.019Z,100641.75
2022-11-08T11:25:23.819Z,100643.25
2022-11-08T11:27:59.430Z,100643.94
2022-11-08T11:30:42.161Z,100631.81
2022-11-08T11:33:29.920Z,100627.63
2022-11-08T11:36:17.100Z,100634.84
2022-11-08T11:39:10.639Z,100633.94
2022-11-08T11:41:52.254Z,100628.03
2022-11-08T11:44:58.312Z,100629.00
2022-11-08T11:47:53.408Z,100626.34
2022-11-08T11:50:45.465Z,100622.41
2022-11-08T11:53:40.224Z,100612.75
2022-11-08T11:57:10.045Z,100612.97
2022-11-08T12:00:05.249Z,100601.03
2022-11-08T12:03:16.780Z,100604.19
2022-11-08T12:05:59.751Z,100596.31
2022-11-08T12:09:08.106Z,100590.88
2022-11-08T12:12:19.764Z,100594.16
2022-11-08T12:15:30.221Z,100592.50
2022-11-08T12:18:52.762Z,100584.34
2022-11-08T12:21:45.019Z,100585.34
2022-11-08T12:24:46.566Z,100579.22
2022-11-08T12:28:33.260Z,100568.38
2022-11-08T12:31:59.333Z,100565.03
2022-11-08T12:34:52.729Z,100565.91
2022-11-08T12:38:18.965Z,100562.06
2022-11-08T12:40:52.660Z,100563.78
2022-11-08T12:43:36.732Z,100561.00
2022-11-08T12:46:18.622Z,100555.41
2022-11-08T12:49:36.059Z,100551.88
2022-11-08T12:53:04.533Z,100550.34
2022-11-08T12:55:37.870Z,100556.00
2022-11-08T12:58:41.085Z,100553.38
2022-11-08T13:01:26.749Z,100546.59
2022-11-08T13:04:21.334Z,100541.78
2022-11-08T13:07:39.578Z,100537.13
2022-11-08T13:10:24.540Z,100538.50
2022-11-08T13:13:37.007Z,100527.59
2022-11-08T13:16:39.188Z,100536.16
2022-11-08T13:19:25.836Z,100526.38
2022-11-08T13:21:53.098Z,100516.44
2022-11-08T13:24:43.441Z,100510.41
2022-11-08T13:27:40.535Z,100510.72
2022-11-08T13:30:19.501Z,100503.16
2022-11-08T13:33:34.966Z,100503.66
2022-11-08T13:36:30.736Z,100488.66
2022-11-08T13:39:47.904Z,100483.50
2022-11-08T13:42:17.741Z,100492.41
2022-11-08T13:45:10.117Z,100490.50
2022-11-08T13:47:36.901Z,100495.06
2022-11-08T13:50:33.645Z,100496.94
2022-11-08T13:53:19.906Z,100495.38
2022-11-08T13:55:58.333Z,100490.44
2022-11-08T13:58:49.491Z,100489.00
2022-11-08T14:01:22.207Z,100494.88
2022-11-08T14:04:42.000Z,100483.56
2022-11-08T14:07:25.655Z,100504.13
2022-11-08T14:10:40.032Z,100511.56
2022-11-08T14:13:57.955Z,100498.44
2022-11-08T14:16:43.545Z,100495.50
2022-11-08T14:19:19.750Z,100493.06
2022-11-08T14:21:57.923Z,100495.81
2022-11-08T14:24:35.126Z,100481.69
2022-11-08T14:27:03.340Z,100483.09
2022-11-08T14:29:30.746Z,100483.75
2022-11-08T14:32:19.824Z,100481.94
2022-11-08T14:34:47.487Z,100486.13
2022-11-08T14:37:27.083Z,100478.50
2022-11-08T14:39:54.909Z,100483.84
2022-11-08T14:42:25.708Z,100479.13
2022-11-08T14:44:57.324Z,100484.22
2022-11-08T14:47:31.517Z,100483.63
2022-11-08T14:49:59.742Z,100473.75
2022-11-08T14:52:33.120Z,100484.03
2022-11-08T14:55:09.014Z,100485.13
2022-11-08T14:57:41.784Z,100489.56
2022-11-08T15:00:26.930Z,100481.88
2022-11-08T15:03:03.239Z,100469.78
2022-11-08T15:05:45.167Z,100470.69
2022-11-08T15:08:38.009Z,100466.31
2022-11-08T15:11:12.531Z,100468.09
2022-11-08T15:13:50.315Z,100464.94
2022-11-08T15:16:18.145Z,100465.81
2022-11-08T15:18:45.739Z,100463.03
2022-11-08T15:21:13.746Z,100459.47
2022-11-08T15:23:55.370Z,100450.94
2022-11-08T15:26:34.992Z,100449.88
2022-11-08T15:29:18.895Z,100454.84
2022-11-08T15:32:01.976Z,100443.94
2022-11-08T15:34:41.543Z,100445.91
2022-11-08T15:37:27.823Z,100439.50
2022-11-08T15:39:55.709Z,100443.41
2022-11-08T15:42:23.122Z,100442.31
2022-11-08T15:45:14.355Z,100442.91
2022-11-08T15:47:44.148Z,100451.06
2022-11-08T15:50:25.644Z,100448.31
2022-11-08T15:52:56.828Z,100455.09
2022-11-08T15:55:38.610Z,100452.44
2022-11-08T15:58:15.004Z,100445.97
2022-11-08T16:00:48.055Z,100450.53
2022-11-08T16:03:15.821Z,100449.41
2022-11-08T16:05:42.873Z,100443.50
2022-11-08T16:08:09.999Z,100441.69
2022-11-08T16:10:44.950Z,100448.31
2022-11-08T16:13:27.040Z,100446.94
2022-11-08T16:15:54.696Z,100441.56
2022-11-08T16:18:21.873Z,100441.69
2022-11-08T16:20:49.137Z,100444.19
2022-11-08T16:23:16.718Z,100448.03
2022-11-08T16:25:54.608Z,100445.81
2022-11-08T16:28:35.000Z,100437.78
2022-11-08T16:31:07.933Z,100433.81
2022-11-08T16:33:36.488Z,100436.06
2022-11-08T16:36:29.602Z,100434.66
2022-11-08T16:38:59.090Z,100430.22
2022-11-08T16:41:26.453Z,100433.22
2022-11-08T16:43:54.109Z,100427.59
2022-11-08T16:46:22.934Z,100422.34
2022-11-08T16:48:58.939Z,100428.06
2022-11-08T16:51:26.462Z,100429.63
2022-11-08T16:53:54.422Z,100435.00
2022-11-08T16:56:21.743Z,100431.16
2022-11-08T16:58:49.178Z,100428.09
2022-11-08T17:01:33.495Z,100430.44
2022-11-08T17:04:00.926Z,100431.16
2022-11-08T17:06:28.806Z,100433.78
2022-11-08T17:08:56.707Z,100430.19
2022-11-08T17:11:30.740Z,100431.19
2022-11-08T17:14:02.345Z,100423.16
2022-11-08T17:16:36.006Z,100428.13
2022-11-08T17:19:11.740Z,100431.44
2022-11-08T17:21:44.886Z,100434.91
2022-11-08T17:24:20.017Z,100426.72
2022-11-08T17:26:51.059Z,100426.75
2022-11-08T17:29:20.680Z,100436.13
2022-11-08T17:32:11.510Z,100434.91
2022-11-08T17:34:39.996Z,100431.97
2022-11-08T17:37:07.075Z,100434.59
2022-11-08T17:39:34.334Z,100432.69
2022-11-08T17:42:01.302Z,100428.97
2022-11-08T17:44:29.584Z,100435.69
2022-11-08T17:46:56.696Z,100433.38
2022-11-08T17:49:23.750Z,100439.16
2022-11-08T17:51:51.054Z,100437.78
2022-11-08T17:54:18.320Z,100434.34
2022-11-08T17:56:45.394Z,100430.34
2022-11-08T17:59:12.760Z,100429.53
2022-11-08T18:01:40.083Z,100425.91
2022-11-08T18:04:07.523Z,100428.13
2022-11-08T18:06:34.676Z,100429.09
2022-11-08T18:09:06.561Z,100424.81
2022-11-08T18:11:34.159Z,100434.22
2022-11-08T18:14:28.462Z,100421.22
2022-11-08T18:16:57.011Z,100432.28
2022-11-08T18:19:27.596Z,100427.56
2022-11-08T18:21:54.541Z,100434.78
2022-11-08T18:24:21.614Z,100427.03
2022-11-08T18:26:48.837Z,100425.63
2022-11-08T18:29:15.930Z,100435.03
2022-11-08T18:31:43.043Z,100425.22
2022-11-08T18:34:10.028Z,100437.63
2022-11-08T18:36:37.030Z,100424.81
2022-11-08T18:39:04.209Z,100428.53
2022-11-08T18:41:34.126Z,100421.75
2022-11-08T18:44:02.776Z,100424.63
2022-11-08T18:46:40.337Z,100425.31
2022-11-08T18:49:12.884Z,100410.94
2022-11-08T18:51:41.262Z,100416.47
2022-11-08T18:54:08.406Z,100408.16
2022-11-08T18:56:35.813Z,100413.41
2022-11-08T18:59:02.960Z,100422.25
2022-11-08T19:01:30.084Z,100421.97
2022-11-08T19:03:57.208Z,100422.25
2022-11-08T19:06:24.267Z,100426.63
2022-11-08T19:08:51.326Z,100420.69
2022-11-08T19:11:22.828Z,100427.59
2022-11-08T19:13:53.069Z,100421.13
2022-11-08T19:16:21.026Z,100424.16
2022-11-08T19:18:49.855Z,100430.09
2022-11-08T19:21:26.792Z,100414.50
2022-11-08T19:23:59.263Z,100429.25
2022-11-08T19:26:34.223Z,100427.00
2022-11-08T19:29:03.043Z,100435.31
2022-11-08T19:31:30.785Z,100434.38
2022-11-08T19:33:58.191Z,100437.38
2022-11-08T19:36:28.691Z,100443.06
2022-11-08T19:38:57.913Z,100445.41
2022-11-08T19:41:28.472Z,100440.81
2022-11-08T19:43:55.697Z,100440.25
2022-11-08T19:46:29.210Z,100438.78
2022-11-08T19:48:57.395Z,100433.53
2022-11-08T19:51:31.651Z,100436.41
2022-11-08T19:54:11.984Z,100441.13
2022-11-08T19:59:25.973Z,100440.25
2022-11-08T20:01:53.109Z,100441.16
2022-11-08T20:04:20.374Z,100439.97
2022-11-08T20:06:47.539Z,100438.69
2022-11-08T20:09:14.986Z,100434.88
2022-11-08T20:11:42.542Z,100430.22
2022-11-08T20:14:13.221Z,100434.41
2022-11-08T20:16:44.314Z,100427.34
2022-11-08T20:19:16.678Z,100423.59
2022-11-08T20:21:46.268Z,100422.09
2022-11-08T20:24:15.776Z,100421.41
2022-11-08T20:26:43.804Z,100415.59
2022-11-08T20:29:11.970Z,100411.88
2022-11-08T20:31:42.302Z,100410.56
2022-11-08T20:34:13.005Z,100413.06
2022-11-08T20:36:41.660Z,100417.34
2022-11-08T20:39:10.452Z,100418.75
2022-11-08T20:41:39.169Z,100415.47
2022-11-08T20:44:08.993Z,100418.50
2022-11-08T20:46:37.854Z,100421.88
2022-11-08T20:49:05.948Z,100422.03
2022-11-08T20:51:34.021Z,100418.97
2022-11-08T20:54:21.871Z,100415.97
2022-11-08T20:56:48.907Z,100418.19
2022-11-08T20:59:16.001Z,100411.81
2022-11-08T21:01:43.341Z,100404.66
2022-11-08T21:04:10.636Z,100406.31
2022-11-08T21:06:40.550Z,100413.75
2022-11-08T21:09:34.549Z,100409.19
2022-11-08T21:11:58.046Z,100421.47
2022-11-08T21:14:25.640Z,100421.88
2022-11-08T21:19:44.005Z,100423.94
2022-11-08T21:22:17.068Z,100425.28
2022-11-08T21:24:47.943Z,100419.25
2022-11-08T21:27:16.959Z,100418.84
2022-11-08T21:29:43.999Z,100419.78
2022-11-08T21:32:11.045Z,100417.75
2022-11-08T21:34:39.641Z,100420.38
2022-11-08T21:37:13.133Z,100410.16
2022-11-08T21:39:40.319Z,100410.84
2022-11-08T21:42:07.354Z,100409.78
2022-11-08T21:44:34.612Z,100414.31
2022-11-08T21:47:02.021Z,100415.13
2022-11-08T21:49:28.936Z,100423.41
2022-11-08T21:51:56.099Z,100423.94
2022-11-08T21:54:23.265Z,100424.50
2022-11-08T21:56:50.285Z,100413.59
2022-11-08T21:59:17.613Z,100422.28
2022-11-08T22:01:44.530Z,100423.13
2022-11-08T22:04:11.499Z,100420.31
2022-11-08T22:06:38.512Z,100417.22
2022-11-08T22:09:05.535Z,100419.97
2022-11-08T22:11:32.766Z,100423.66
2022-11-08T22:14:03.107Z,100420.16
2022-11-08T22:16:30.082Z,100415.75
2022-11-08T22:19:05.749Z,100411.94
2022-11-08T22:21:37.776Z,100407.16
2022-11-08T22:24:20.826Z,100394.38
2022-11-08T22:26:50.961Z,100401.69
2022-11-08T22:29:18.958Z,100404.91
2022-11-08T22:31:46.599Z,100406.97
2022-11-08T22:34:17.324Z,100405.63
2022-11-08T22:36:53.911Z,100398.91
2022-11-08T22:39:23.685Z,100403.63
2022-11-08T22:41:53.420Z,100413.28
2022-11-08T22:44:20.578Z,100414.09
2022-11-08T22:46:57.705Z,100411.34
2022-11-08T22:49:24.748Z,100406.38
2022-11-08T22:51:57.660Z,100411.22
2022-11-08T22:54:24.633Z,100416.19
2022-11-08T22:56:55.916Z,100417.22
2022-11-08T22:59:27.169Z,100417.97
2022-11-08T23:01:57.152Z,100414.50
2022-11-08T23:04:24.283Z,100416.84
2022-11-08T23:06:51.233Z,100422.03
2022-11-08T23:09:18.178Z,100420.38
2022-11-08T23:12:03.953Z,100417.06
2022-11-08T23:14:49.768Z,100423.94
2022-11-08T23:17:16.750Z,100425.03
2022-11-08T23:20:02.240Z,100418.25
2022-11-08T23:22:47.622Z,100414.69
2022-11-08T23:25:14.607Z,100411.22
2022-11-08T23:28:00.285Z,100408.09
2022-11-08T23:30:45.665Z,100406.00
2022-11-08T23:33:12.689Z,100408.78
2022-11-08T23:35:59.600Z,100397.69
2022-11-08T23:38:26.622Z,100411.09
2022-11-08T23:41:13.832Z,100409.28
2022-11-08T23:43:59.620Z,100416.34
2022-11-08T23:46:26.651Z,100420.47
2022-11-08T23:48:53.634Z,100431.06
2022-11-08T23:51:20.532Z,100429.94
2022-11-08T23:53:47.476Z,100421.97
2022-11-08T23:56:26.291Z,100423.06
2022-11-08T23:58:56.243Z,100419.34
